Accueil
METAR-TAF:

METAR-TAF

Aéroports :

Aéroport de Bintulu

Bintulu, Malaisie

latitude: 03-12N, longitude: 113-02E, altitude: 2 m

Observation

Le bulletin a été fait il y a 45 minutes, à 19:00 UTC
Vent calme
Température 25°C
Humidité 94%
Pression 1008 hPa
Visibilité 10 km ou plus
Quelques nuages à une hauteur de 1600 ft

METAR: WBGB 241900Z 00000KT 9999 FEW016 25/24 Q1008

Heure: 03:45 (19:45 UTC)

Prévision

Le bulletin a été fait il y a 2 heures et 45 minutes, à 17:00 UTC
Prévision valable du 24 à 18 UTC au 25 à 18 UTC
Vent 3 kt de direction variable
Visibilité 10 km ou plus
Quelques nuages à une hauteur de 1600 ft

TAF: WBGB 241700Z 2418/2518 VRB03KT 9999 FEW016

Observations et prévisions météorologiques de plus de 4000 aéroports (messages METAR et TAF).

Les stations disponibles sont représentées par des disques jaunes et rouges sur la carte.

Passer la souris dessus pour voir le nom de la station.

Cliquer dessus pour voir les observations et prévisions météorologiques.

Pour changer de carte: cliquez sur les boutons verts avec une croix noire pour zoomer, sur le bouton vert avec un tiret pour effectuer un zoom arrière, ou sur les flèches vertes pour les cartes adjacentes.


METAR-TAF: